Time;durP1;ratioP1;P1;durP2;ratioP2;P2;SDS_P1;SDS_P2;PMS_P1;PMS_P2;Temp;Humidity;BMP_temperature;BMP_pressure;BME280_temperature;BME280_humidity;BME280_pressure;Samples;Min_cycle;Max_cycle;Signal;HPM_P1;HPM_P2
2021/12/08 00:00:51;;;;;;;4.25;1.85;;;5.30;46.60;;;;;;5033796;28;20186;-73
2021/12/08 00:03:19;;;;;;;2.25;1.67;;;5.30;46.90;;;;;;5033476;28;20197;-73
2021/12/08 00:05:45;;;;;;;6.10;1.73;;;5.40;46.40;;;;;;5032687;28;20201;-73
2021/12/08 00:08:13;;;;;;;5.93;2.33;;;5.50;45.40;;;;;;5024795;28;20614;-73
2021/12/08 00:13:00;;;;;;;4.30;1.65;;;5.50;45.60;;;;;;5017743;28;20181;-73
2021/12/08 00:13:35;;;;;;;8.05;1.67;;;5.60;43.60;;;;;;5029730;28;20192;-73
2021/12/08 00:16:11;;;;;;;9.15;2.25;;;5.60;43.40;;;;;;5025606;28;20187;-73
2021/12/08 00:18:43;;;;;;;4.00;1.70;;;5.60;43.90;;;;;;5017846;28;20254;-73
2021/12/08 00:21:10;;;;;;;4.03;1.55;;;5.70;44.50;;;;;;5026761;28;20179;-74
2021/12/08 00:23:36;;;;;;;2.90;1.42;;;5.70;46.10;;;;;;5032887;28;20184;-74
2021/12/08 00:26:03;;;;;;;8.77;2.63;;;5.60;45.60;;;;;;5032517;28;20574;-73
2021/12/08 00:28:29;;;;;;;10.88;2.15;;;5.50;47.40;;;;;;5031676;28;20203;-73
2021/12/08 00:30:57;;;;;;;3.97;1.40;;;5.40;49.10;;;;;;5031266;28;20563;-72
2021/12/08 00:33:22;;;;;;;3.28;1.95;;;5.60;49.00;;;;;;5012751;28;20192;-73
2021/12/08 00:35:51;;;;;;;5.60;1.97;;;5.40;50.90;;;;;;5013192;28;20172;-73
2021/12/08 00:38:17;;;;;;;8.52;2.08;;;5.40;50.00;;;;;;5013351;28;20427;-73
2021/12/08 00:40:44;;;;;;;1.90;1.40;;;5.40;50.70;;;;;;5026715;28;20181;-72
2021/12/08 00:43:10;;;;;;;4.90;1.90;;;5.50;50.00;;;;;;5029696;28;20176;-75
2021/12/08 00:45:35;;;;;;;2.78;1.77;;;5.50;51.90;;;;;;5022894;28;20266;-71
2021/12/08 00:48:04;;;;;;;8.27;1.60;;;5.50;51.90;;;;;;5015237;28;20275;-71
2021/12/08 00:50:33;;;;;;;7.72;2.90;;;5.40;53.10;;;;;;5012553;28;20526;-72
2021/12/08 00:52:59;;;;;;;4.07;2.33;;;5.40;53.20;;;;;;5032326;28;20196;-71
2021/12/08 00:55:27;;;;;;;5.38;1.90;;;5.30;55.10;;;;;;5038669;28;20184;-72
2021/12/08 00:57:53;;;;;;;1.90;1.20;;;5.40;54.00;;;;;;5026047;28;20266;-70
2021/12/08 01:00:26;;;;;;;3.65;2.03;;;5.40;55.30;;;;;;5012478;28;20250;-70
2021/12/08 01:02:51;;;;;;;4.25;1.90;;;5.30;54.60;;;;;;5014842;28;20539;-70
2021/12/08 01:05:21;;;;;;;5.97;2.10;;;5.50;53.90;;;;;;5030061;28;20176;-70
2021/12/08 01:07:48;;;;;;;1.50;1.40;;;5.50;53.60;;;;;;5031066;28;20235;-70
2021/12/08 01:10:19;;;;;;;1.73;1.55;;;5.50;54.70;;;;;;5021831;28;20184;-70
2021/12/08 01:12:45;;;;;;;5.35;2.10;;;5.50;55.00;;;;;;5017389;28;20680;-70
2021/12/08 01:15:10;;;;;;;4.20;2.17;;;5.50;55.20;;;;;;5011719;28;20177;-70
2021/12/08 01:17:38;;;;;;;2.10;1.90;;;5.70;53.90;;;;;;5010028;28;20423;-70
2021/12/08 01:20:07;;;;;;;2.25;1.58;;;5.60;54.80;;;;;;5016131;28;20876;-70
2021/12/08 01:22:33;;;;;;;5.40;1.60;;;5.50;55.60;;;;;;5025812;28;20180;-70
2021/12/08 01:24:59;;;;;;;2.20;1.63;;;5.60;54.70;;;;;;5025715;28;20188;-70
2021/12/08 01:27:24;;;;;;;3.33;1.60;;;5.60;55.40;;;;;;5011090;28;20549;-69
2021/12/08 01:29:50;;;;;;;3.50;1.70;;;5.70;54.60;;;;;;5014209;28;20195;-70
2021/12/08 01:32:15;;;;;;;3.77;1.60;;;5.60;55.60;;;;;;5032323;28;20287;-70
2021/12/08 01:34:41;;;;;;;2.00;1.50;;;5.60;55.40;;;;;;5025766;28;20211;-71
2021/12/08 01:37:07;;;;;;;5.90;2.00;;;5.60;54.90;;;;;;5011755;28;20206;-71
2021/12/08 01:39:33;;;;;;;1.53;1.40;;;5.60;55.30;;;;;;5025002;28;20710;-71
2021/12/08 01:41:58;;;;;;;8.23;2.53;;;5.80;54.50;;;;;;5018661;28;20414;-71
2021/12/08 01:47:08;;;;;;;3.72;1.88;;;5.70;54.00;;;;;;5018492;28;20203;-71
2021/12/08 01:49:34;;;;;;;6.43;2.03;;;5.80;53.00;;;;;;5019863;28;20667;-70
2021/12/08 01:51:59;;;;;;;3.37;2.00;;;5.80;54.00;;;;;;5020013;28;20629;-70
2021/12/08 01:54:25;;;;;;;5.93;2.00;;;5.80;53.40;;;;;;5033619;28;20267;-70
2021/12/08 01:56:51;;;;;;;17.60;2.30;;;5.80;53.60;;;;;;5034432;28;20176;-71
2021/12/08 01:59:17;;;;;;;12.07;2.10;;;5.80;53.90;;;;;;5025762;28;20309;-71
2021/12/08 02:01:44;;;;;;;2.50;1.25;;;5.70;55.90;;;;;;5020441;28;20415;-71
2021/12/08 02:04:11;;;;;;;2.75;1.63;;;5.80;54.80;;;;;;5028603;28;20180;-71
2021/12/08 02:06:44;;;;;;;4.82;1.85;;;5.90;53.60;;;;;;5033699;28;20286;-71
2021/12/08 02:09:14;;;;;;;4.25;1.70;;;6.00;53.50;;;;;;5030320;28;20221;-72
2021/12/08 02:11:44;;;;;;;8.68;2.20;;;5.90;53.30;;;;;;5024180;28;20369;-72
2021/12/08 02:14:10;;;;;;;3.95;2.17;;;5.80;54.90;;;;;;5033014;28;20199;-71
2021/12/08 02:16:36;;;;;;;1.70;1.50;;;5.80;55.30;;;;;;5032224;28;20176;-71
2021/12/08 02:19:02;;;;;;;2.87;1.77;;;5.80;54.10;;;;;;5024860;28;20211;-72
2021/12/08 02:21:34;;;;;;;3.20;1.57;;;5.90;53.80;;;;;;5028404;28;20573;-71
2021/12/08 02:24:04;;;;;;;2.85;1.50;;;5.90;54.10;;;;;;5020685;28;20180;-71
2021/12/08 02:26:31;;;;;;;2.85;1.60;;;5.90;54.00;;;;;;5013984;28;20200;-70
2021/12/08 02:29:00;;;;;;;3.10;1.63;;;6.00;53.90;;;;;;5014919;28;20205;-72
2021/12/08 02:32:14;;;;;;;1.60;1.50;;;5.90;54.30;;;;;;5021866;28;20195;-71
2021/12/08 02:47:57;;;;;;;4.07;1.90;;;6.00;55.00;;;;;;5029374;28;20250;-71
2021/12/08 02:50:30;;;;;;;1.70;1.60;;;6.00;55.40;;;;;;5043172;28;20189;-71
2021/12/08 02:52:57;;;;;;;9.02;2.20;;;6.00;55.30;;;;;;5035757;28;20180;-71
2021/12/08 02:55:23;;;;;;;3.38;1.55;;;6.10;54.10;;;;;;5043585;28;20199;-70
2021/12/08 02:57:49;;;;;;;2.30;1.58;;;6.10;55.40;;;;;;5045673;28;20175;-72
2021/12/08 03:00:23;;;;;;;3.30;1.80;;;6.20;55.30;;;;;;5039145;28;20218;-72
2021/12/08 03:02:49;;;;;;;3.38;1.50;;;6.00;56.50;;;;;;5032360;28;20202;-71
2021/12/08 03:05:14;;;;;;;1.97;1.77;;;6.10;57.10;;;;;;5025513;28;20645;-71
2021/12/08 03:07:40;;;;;;;2.50;1.60;;;6.10;56.40;;;;;;5017440;28;20482;-71
2021/12/08 03:10:12;;;;;;;3.20;1.87;;;6.20;55.50;;;;;;5029146;28;20212;-71
2021/12/08 03:12:38;;;;;;;4.35;1.60;;;6.20;55.20;;;;;;5027093;28;20565;-71
2021/12/08 03:15:06;;;;;;;4.43;1.60;;;6.20;55.70;;;;;;5013919;28;20180;-72
2021/12/08 03:17:33;;;;;;;5.05;2.30;;;6.20;56.20;;;;;;5018692;28;20236;-71
2021/12/08 03:19:58;;;;;;;7.40;2.22;;;6.10;56.60;;;;;;5041755;28;20211;-71
2021/12/08 03:22:24;;;;;;;2.60;1.87;;;6.10;57.20;;;;;;5038258;28;20180;-71
2021/12/08 03:24:52;;;;;;;1.80;1.50;;;6.10;57.20;;;;;;5026477;28;20211;-71
2021/12/08 03:27:22;;;;;;;3.70;1.60;;;6.10;57.00;;;;;;5031100;28;20200;-71
2021/12/08 03:32:23;;;;;;;1.90;1.80;;;6.10;57.70;;;;;;5033463;28;20176;-71
2021/12/08 03:34:52;;;;;;;4.03;2.22;;;6.20;57.30;;;;;;5024547;28;20172;-71
2021/12/08 03:37:33;;;;;;;2.25;1.90;;;6.10;58.60;;;;;;5019300;28;20169;-72
2021/12/08 03:40:01;;;;;;;6.47;1.70;;;6.10;58.70;;;;;;5020035;28;20196;-72
2021/12/08 03:42:30;;;;;;;6.95;1.85;;;6.10;58.80;;;;;;5026400;28;20191;-72
2021/12/08 03:45:00;;;;;;;4.53;2.58;;;5.90;59.60;;;;;;5015952;28;20676;-72
2021/12/08 03:47:29;;;;;;;2.47;2.30;;;5.90;62.20;;;;;;5016295;28;20278;-71
2021/12/08 03:49:58;;;;;;;1.85;1.70;;;5.80;62.60;;;;;;5012320;28;20214;-72
2021/12/08 03:52:23;;;;;;;2.10;1.90;;;5.90;62.80;;;;;;5023540;28;20187;-72
2021/12/08 03:54:49;;;;;;;1.80;1.70;;;6.00;62.80;;;;;;5031450;28;20656;-72
2021/12/08 03:57:15;;;;;;;5.27;2.33;;;6.00;63.60;;;;;;5021645;28;20183;-71
2021/12/08 03:59:41;;;;;;;2.20;2.07;;;6.10;62.50;;;;;;5011533;28;20447;-72
2021/12/08 04:02:06;;;;;;;3.67;1.73;;;6.10;61.20;;;;;;5012268;28;20172;-72
2021/12/08 04:04:41;;;;;;;1.90;1.80;;;6.10;61.90;;;;;;5029186;28;20442;-72
2021/12/08 04:07:07;;;;;;;3.30;1.80;;;6.20;61.30;;;;;;5023264;28;20211;-73
2021/12/08 04:09:44;;;;;;;4.75;2.10;;;6.20;61.10;;;;;;5022872;28;20334;-73
2021/12/08 04:12:15;;;;;;;2.67;1.42;;;6.10;62.50;;;;;;5032071;28;20167;-73
2021/12/08 04:14:53;;;;;;;1.73;1.63;;;6.10;64.00;;;;;;5030809;28;20190;-73
2021/12/08 04:17:23;;;;;;;2.85;1.80;;;6.00;64.60;;;;;;5020443;28;20173;-73
2021/12/08 04:19:50;;;;;;;1.80;1.70;;;6.10;64.10;;;;;;5026589;28;20444;-73
2021/12/08 04:22:21;;;;;;;3.30;2.00;;;5.90;65.80;;;;;;5029456;28;20176;-73
2021/12/08 04:24:48;;;;;;;2.83;1.80;;;5.90;67.40;;;;;;5011579;28;20756;-72
2021/12/08 04:27:20;;;;;;;1.88;1.75;;;6.00;66.30;;;;;;5011590;28;20290;-73
2021/12/08 04:29:48;;;;;;;2.25;2.05;;;6.00;66.90;;;;;;5029062;28;20225;-71
2021/12/08 04:32:16;;;;;;;6.85;2.20;;;5.90;67.10;;;;;;5013529;28;20187;-73
2021/12/08 04:34:45;;;;;;;3.75;1.70;;;5.70;69.10;;;;;;5011958;28;20326;-72
2021/12/08 04:37:24;;;;;;;2.15;1.95;;;5.70;70.50;;;;;;5011785;28;20173;-71
2021/12/08 04:45:13;;;;;;;6.28;2.65;;;5.60;71.60;;;;;;5022707;28;20198;-71
2021/12/08 04:51:09;;;;;;;2.83;2.20;;;5.60;73.80;;;;;;5003455;28;20192;-70
2021/12/08 05:01:59;;;;;;;4.25;2.60;;;5.60;74.00;;;;;;5032221;28;20283;-72
2021/12/08 05:04:42;;;;;;;4.90;3.05;;;5.70;74.80;;;;;;5042515;28;20195;-77
2021/12/08 05:09:59;;;;;;;3.63;2.85;;;5.60;74.70;;;;;;5029553;28;20208;-74
2021/12/08 05:12:29;;;;;;;12.07;3.85;;;5.60;75.00;;;;;;5031956;28;20278;-74
2021/12/08 05:15:15;;;;;;;3.88;2.88;;;5.60;76.80;;;;;;5035587;28;20603;-74
2021/12/08 05:18:23;;;;;;;4.47;2.72;;;5.60;77.30;;;;;;5035483;28;20644;-74
2021/12/08 05:21:03;;;;;;;5.10;2.50;;;5.60;76.70;;;;;;5018453;28;20665;-74
2021/12/08 05:23:51;;;;;;;3.33;2.40;;;5.60;76.30;;;;;;5025069;28;20172;-74
2021/12/08 05:26:25;;;;;;;7.25;2.70;;;5.60;79.50;;;;;;5015078;28;20291;-74
2021/12/08 05:28:52;;;;;;;8.68;3.47;;;5.70;78.80;;;;;;5035858;28;20234;-73
2021/12/08 05:31:23;;;;;;;8.02;2.50;;;5.70;79.60;;;;;;5042796;28;20191;-74
2021/12/08 05:33:50;;;;;;;7.45;2.67;;;5.90;78.00;;;;;;5024707;28;20195;-74
2021/12/08 05:36:16;;;;;;;4.65;2.88;;;5.80;76.70;;;;;;5015342;28;20180;-74
2021/12/08 05:38:43;;;;;;;10.27;3.47;;;5.90;77.60;;;;;;5018871;28;20210;-74
2021/12/08 05:41:11;;;;;;;2.70;2.50;;;5.80;78.30;;;;;;5025039;28;20660;-73
2021/12/08 05:43:37;;;;;;;6.80;3.25;;;5.90;79.50;;;;;;5021299;28;20184;-74
2021/12/08 05:46:03;;;;;;;7.72;3.80;;;5.80;79.10;;;;;;5014940;28;20549;-74
2021/12/08 05:48:31;;;;;;;5.47;3.00;;;5.80;79.90;;;;;;5019106;28;20193;-74
2021/12/08 05:51:06;;;;;;;5.55;3.40;;;5.80;79.60;;;;;;5014650;28;20175;-74
2021/12/08 05:53:34;;;;;;;6.68;3.70;;;5.90;79.00;;;;;;5031605;28;20229;-74
2021/12/08 05:56:00;;;;;;;5.68;2.90;;;5.90;78.30;;;;;;5026121;28;20208;-73
2021/12/08 05:58:27;;;;;;;5.82;3.00;;;5.80;80.00;;;;;;5013782;28;20290;-73
2021/12/08 06:01:17;;;;;;;24.35;8.10;;;5.70;81.90;;;;;;5014362;28;20177;-74
2021/12/08 06:03:43;;;;;;;8.85;3.47;;;5.70;83.90;;;;;;5021733;28;20181;-74
2021/12/08 06:06:10;;;;;;;6.40;2.97;;;5.60;83.40;;;;;;5022727;28;20234;-74
2021/12/08 06:08:36;;;;;;;4.90;2.85;;;5.60;84.30;;;;;;5033701;28;20202;-73
2021/12/08 06:11:04;;;;;;;9.50;2.95;;;5.50;85.60;;;;;;5026086;28;20856;-75
2021/12/08 06:13:30;;;;;;;6.68;3.60;;;5.50;85.70;;;;;;5014244;28;20183;-74
2021/12/08 06:15:56;;;;;;;11.75;4.43;;;5.50;86.00;;;;;;5014614;28;20704;-74
2021/12/08 06:18:25;;;;;;;6.40;2.85;;;5.40;88.10;;;;;;5014932;28;20279;-74
2021/12/08 06:20:54;;;;;;;8.43;3.33;;;5.40;88.40;;;;;;5027592;28;20211;-74
2021/12/08 06:23:20;;;;;;;10.75;3.75;;;5.30;89.60;;;;;;5028575;28;20187;-74
2021/12/08 06:25:46;;;;;;;7.07;3.93;;;5.30;91.10;;;;;;5019155;28;20173;-73
2021/12/08 06:28:11;;;;;;;8.80;4.03;;;5.30;92.40;;;;;;5016242;28;20434;-73
2021/12/08 06:30:40;;;;;;;5.33;3.17;;;5.40;90.90;;;;;;5030697;28;20541;-74
2021/12/08 06:33:06;;;;;;;10.57;4.30;;;5.50;88.60;;;;;;5016748;28;20192;-73
2021/12/08 06:35:48;;;;;;;7.97;4.57;;;5.60;88.10;;;;;;5014196;28;20208;-73
2021/12/08 06:38:15;;;;;;;8.10;3.10;;;5.70;86.30;;;;;;5013783;28;20315;-73
2021/12/08 06:40:50;;;;;;;5.82;3.50;;;5.80;84.90;;;;;;5020741;28;20265;-75
2021/12/08 06:43:20;;;;;;;8.05;3.70;;;5.80;82.40;;;;;;5031968;28;20195;-74
2021/12/08 06:45:49;;;;;;;4.93;3.38;;;5.80;81.80;;;;;;5026508;28;20187;-74
2021/12/08 06:48:19;;;;;;;9.93;3.75;;;5.90;83.00;;;;;;5022403;28;20200;-73
2021/12/08 06:50:50;;;;;;;6.00;3.72;;;5.90;81.60;;;;;;5013615;28;20648;-73
2021/12/08 06:53:16;;;;;;;7.78;3.90;;;5.90;82.70;;;;;;5029876;28;20180;-73
2021/12/08 06:55:50;;;;;;;12.23;4.20;;;5.90;80.70;;;;;;5028316;28;20224;-73
2021/12/08 06:58:23;;;;;;;9.07;3.78;;;6.00;80.30;;;;;;5013775;28;20200;-74
2021/12/08 07:04:28;;;;;;;5.30;3.63;;;5.90;80.70;;;;;;5023464;28;20206;-74
2021/12/08 07:09:15;;;;;;;8.10;3.50;;;6.00;79.90;;;;;;5024053;28;20206;-73
2021/12/08 07:11:42;;;;;;;7.82;3.33;;;6.10;77.10;;;;;;5032412;28;20172;-73
2021/12/08 07:14:08;;;;;;;9.45;3.80;;;5.90;78.40;;;;;;5032272;28;20199;-73
2021/12/08 07:16:39;;;;;;;4.60;3.20;;;5.80;81.30;;;;;;5032494;28;20729;-74
2021/12/08 07:19:11;;;;;;;4.82;3.25;;;5.70;81.70;;;;;;5020939;28;20583;-73
2021/12/08 07:21:45;;;;;;;7.38;3.63;;;5.70;83.00;;;;;;5014044;28;20276;-74
2021/12/08 07:24:22;;;;;;;5.07;3.00;;;5.80;79.80;;;;;;5027902;28;20656;-74
2021/12/08 07:26:51;;;;;;;3.45;2.60;;;5.70;81.00;;;;;;5032293;28;20207;-74
2021/12/08 07:29:22;;;;;;;10.15;3.17;;;5.70;79.20;;;;;;5032139;28;20210;-74
2021/12/08 07:31:53;;;;;;;7.07;2.78;;;5.70;78.30;;;;;;5017810;28;20176;-74
2021/12/08 07:34:20;;;;;;;5.20;2.72;;;5.60;78.80;;;;;;5012224;28;20698;-74
2021/12/08 07:36:52;;;;;;;13.70;3.55;;;5.70;79.40;;;;;;5011251;28;20183;-73
2021/12/08 07:39:29;;;;;;;5.78;2.53;;;5.70;78.30;;;;;;5026489;28;20576;-73
2021/12/08 07:42:02;;;;;;;6.15;2.83;;;5.60;78.90;;;;;;5030038;28;20542;-74
2021/12/08 07:44:28;;;;;;;5.63;2.70;;;5.70;78.30;;;;;;5024495;28;20180;-73
2021/12/08 07:46:58;;;;;;;6.97;3.13;;;5.80;76.60;;;;;;5028147;28;20303;-74
2021/12/08 07:49:36;;;;;;;7.68;2.97;;;5.70;77.00;;;;;;5013232;28;20538;-74
2021/12/08 07:52:16;;;;;;;7.28;2.80;;;5.70;75.90;;;;;;5029391;28;20208;-74
2021/12/08 07:54:43;;;;;;;8.13;3.55;;;5.80;75.60;;;;;;5013094;28;20247;-74
2021/12/08 07:57:16;;;;;;;5.50;3.30;;;5.80;73.50;;;;;;5025439;28;20199;-74
2021/12/08 07:59:46;;;;;;;10.40;3.83;;;5.70;71.90;;;;;;5018781;28;20311;-73
2021/12/08 08:02:11;;;;;;;10.20;3.78;;;5.70;71.40;;;;;;5025424;28;20554;-72
2021/12/08 08:04:41;;;;;;;10.90;3.90;;;5.80;70.40;;;;;;5023533;28;20259;-72
2021/12/08 08:07:08;;;;;;;7.60;3.47;;;5.80;69.60;;;;;;5017560;28;20212;-74
2021/12/08 08:09:39;;;;;;;5.65;2.40;;;5.90;68.50;;;;;;5025717;28;20208;-73
2021/12/08 08:12:09;;;;;;;14.80;2.80;;;5.90;66.50;;;;;;5032259;28;20290;-74
2021/12/08 08:14:41;;;;;;;8.38;2.47;;;5.90;65.30;;;;;;5029565;28;20179;-73
2021/12/08 08:17:11;;;;;;;4.20;2.45;;;5.90;65.60;;;;;;5023356;28;20191;-73
2021/12/08 08:19:43;;;;;;;10.35;2.70;;;6.00;64.90;;;;;;5013846;28;20200;-76
2021/12/08 08:22:13;;;;;;;7.70;3.05;;;6.00;64.20;;;;;;5029026;28;20559;-73
2021/12/08 08:24:39;;;;;;;4.30;2.42;;;6.00;63.60;;;;;;5030124;28;20192;-72
2021/12/08 08:27:08;;;;;;;8.43;3.03;;;5.90;64.00;;;;;;5021883;28;20254;-74
2021/12/08 08:29:37;;;;;;;12.68;2.42;;;5.90;64.80;;;;;;5021790;28;20450;-74
2021/12/08 08:32:08;;;;;;;9.73;2.50;;;5.90;66.50;;;;;;5031060;28;20180;-73
2021/12/08 08:34:38;;;;;;;7.80;2.85;;;5.90;66.70;;;;;;5027258;28;20187;-73
2021/12/08 08:37:08;;;;;;;7.13;2.20;;;6.00;67.40;;;;;;5020408;28;20180;-73
2021/12/08 08:39:36;;;;;;;8.05;3.92;;;6.00;68.50;;;;;;5017131;28;20203;-73
2021/12/08 08:42:07;;;;;;;8.30;2.78;;;6.00;68.20;;;;;;5011881;28;20226;-74
2021/12/08 08:44:36;;;;;;;12.80;3.45;;;6.00;69.00;;;;;;5016070;28;20199;-74
2021/12/08 08:47:07;;;;;;;14.65;3.20;;;6.10;69.40;;;;;;5024932;28;20659;-73
2021/12/08 08:49:34;;;;;;;7.03;2.65;;;6.20;67.60;;;;;;5015221;28;20184;-73
2021/12/08 08:52:05;;;;;;;10.85;3.80;;;6.20;68.30;;;;;;5019366;28;20180;-75
2021/12/08 08:54:34;;;;;;;10.07;3.90;;;6.30;67.20;;;;;;5035533;28;20714;-73
2021/12/08 08:57:10;;;;;;;8.88;3.80;;;6.20;67.50;;;;;;5027855;28;20661;-74
2021/12/08 08:59:45;;;;;;;7.88;3.38;;;6.30;67.70;;;;;;5029504;28;20277;-74
2021/12/08 09:02:18;;;;;;;10.32;4.40;;;6.40;66.90;;;;;;5034358;28;20527;-74
2021/12/08 09:04:50;;;;;;;7.90;3.75;;;6.50;65.90;;;;;;5018171;28;20280;-74
2021/12/08 09:07:27;;;;;;;6.57;4.18;;;6.40;64.50;;;;;;5029270;28;20219;-74
2021/12/08 09:09:55;;;;;;;11.60;3.30;;;6.60;63.10;;;;;;5027428;28;20261;-73
2021/12/08 09:12:25;;;;;;;8.55;2.90;;;6.50;61.60;;;;;;5032587;28;20184;-74
2021/12/08 09:15:21;;;;;;;8.32;2.58;;;6.60;58.40;;;;;;5027755;28;20235;-74
2021/12/08 09:17:56;;;;;;;19.15;3.33;;;6.70;55.30;;;;;;5027032;28;20203;-74
2021/12/08 09:20:32;;;;;;;8.35;2.72;;;6.60;55.50;;;;;;5025958;28;20208;-74
2021/12/08 09:23:03;;;;;;;7.50;2.33;;;6.60;56.90;;;;;;5029995;28;20584;-74
2021/12/08 09:25:42;;;;;;;6.38;2.65;;;6.80;55.70;;;;;;5026387;28;20212;-74
2021/12/08 09:28:13;;;;;;;13.23;3.20;;;7.00;54.60;;;;;;5023408;28;20219;-75
2021/12/08 09:30:48;;;;;;;5.88;2.50;;;7.00;52.80;;;;;;5021603;28;20315;-74
2021/12/08 09:33:23;;;;;;;9.45;3.10;;;6.90;54.10;;;;;;5030668;28;20187;-75
2021/12/08 09:35:56;;;;;;;14.00;3.90;;;7.00;53.80;;;;;;5026242;28;20183;-75
2021/12/08 09:38:29;;;;;;;9.23;2.85;;;7.10;52.90;;;;;;5030392;28;20623;-75
2021/12/08 09:41:00;;;;;;;10.80;2.65;;;7.10;52.00;;;;;;5032390;28;20255;-76
2021/12/08 09:43:51;;;;;;;8.25;2.63;;;7.20;50.90;;;;;;5018158;28;20270;-74
2021/12/08 09:46:28;;;;;;;6.15;2.88;;;7.20;50.20;;;;;;5034223;28;20556;-75
2021/12/08 09:48:53;;;;;;;11.00;2.93;;;7.30;51.00;;;;;;5032955;28;20203;-75
2021/12/08 09:51:23;;;;;;;6.47;2.20;;;7.40;49.00;;;;;;5030760;28;20425;-75
2021/12/08 09:53:50;;;;;;;18.98;3.17;;;7.50;48.80;;;;;;5034232;28;20552;-75
2021/12/08 09:56:16;;;;;;;4.90;3.28;;;7.60;47.30;;;;;;5037904;28;20176;-75
2021/12/08 09:58:42;;;;;;;8.07;2.80;;;7.60;47.40;;;;;;5034421;28;20208;-75
2021/12/08 10:01:17;;;;;;;8.65;2.58;;;7.70;46.50;;;;;;5035495;28;20300;-75
2021/12/08 10:03:43;;;;;;;10.70;2.97;;;7.80;45.70;;;;;;5034752;28;20187;-75
2021/12/08 10:06:10;;;;;;;8.93;4.00;;;7.80;45.40;;;;;;5037039;28;20535;-77
2021/12/08 10:08:36;;;;;;;11.70;3.63;;;7.80;45.60;;;;;;5032536;28;20447;-72
2021/12/08 10:11:02;;;;;;;10.17;2.70;;;7.80;44.20;;;;;;5032025;28;20187;-73
2021/12/08 10:13:28;;;;;;;10.60;2.88;;;7.90;45.30;;;;;;5036332;28;20660;-76
2021/12/08 10:15:54;;;;;;;20.43;7.83;;;8.10;43.70;;;;;;5034975;28;20186;-76
2021/12/08 10:18:20;;;;;;;14.90;2.87;;;8.30;42.60;;;;;;5024715;28;20662;-75
2021/12/08 10:20:50;;;;;;;9.65;2.80;;;8.40;41.80;;;;;;5021742;28;20184;-74
2021/12/08 10:23:37;;;;;;;9.20;2.80;;;8.40;41.20;;;;;;5020150;28;20184;-74
2021/12/08 10:26:13;;;;;;;12.23;3.13;;;8.40;40.40;;;;;;5031491;28;20426;-74
2021/12/08 10:28:41;;;;;;;10.93;2.10;;;8.40;40.60;;;;;;5031904;28;20509;-75
2021/12/08 10:31:14;;;;;;;6.97;2.67;;;8.40;39.50;;;;;;5024336;28;20734;-74
2021/12/08 10:34:06;;;;;;;19.33;2.83;;;8.50;39.30;;;;;;5021780;28;20514;-74
2021/12/08 10:36:45;;;;;;;9.20;2.50;;;8.50;39.60;;;;;;5024099;28;20799;-76
2021/12/08 10:39:33;;;;;;;12.10;2.60;;;8.60;38.70;;;;;;5030863;28;20461;-74
2021/12/08 10:42:13;;;;;;;12.23;2.73;;;8.60;38.30;;;;;;5034424;28;20434;-75
2021/12/08 10:45:00;;;;;;;16.40;2.80;;;8.60;38.40;;;;;;5060459;28;21014;-76
2021/12/08 10:47:31;;;;;;;8.43;2.50;;;8.50;38.30;;;;;;5042905;28;20479;-75
2021/12/08 10:55:38;;;;;;;9.55;2.17;;;8.40;37.30;;;;;;5032125;28;20511;-74
2021/12/08 10:58:04;;;;;;;21.87;3.53;;;8.20;38.70;;;;;;5033159;28;20199;-76
2021/12/08 11:00:39;;;;;;;6.43;2.47;;;8.20;38.60;;;;;;5029489;28;20431;-75
2021/12/08 11:03:07;;;;;;;15.33;2.60;;;8.00;38.70;;;;;;5032828;28;20171;-75
2021/12/08 11:05:41;;;;;;;12.17;2.50;;;8.20;38.60;;;;;;5026508;28;20430;-75
2021/12/08 11:08:17;;;;;;;3.77;2.13;;;8.20;37.90;;;;;;5026871;28;20484;-75
2021/12/08 11:10:46;;;;;;;11.50;2.30;;;8.30;38.80;;;;;;5014510;28;20473;-73
2021/12/08 11:13:13;;;;;;;4.20;2.07;;;8.30;37.30;;;;;;5029079;28;20833;-76
2021/12/08 11:15:39;;;;;;;5.77;2.03;;;8.20;37.40;;;;;;5026735;28;20500;-77
2021/12/08 11:18:19;;;;;;;9.77;2.00;;;8.20;38.30;;;;;;5036244;28;20438;-79
2021/12/08 11:20:54;;;;;;;7.80;2.07;;;8.40;37.10;;;;;;5028285;28;20419;-75
2021/12/08 11:23:39;;;;;;;13.50;2.50;;;8.40;36.50;;;;;;5022627;28;20435;-76
2021/12/08 11:26:30;;;;;;;7.13;1.80;;;8.50;36.40;;;;;;5022518;28;20761;-75
2021/12/08 11:29:10;;;;;;;6.20;1.97;;;8.60;35.60;;;;;;5032790;28;20450;-75
2021/12/08 11:31:48;;;;;;;10.60;2.53;;;8.70;35.50;;;;;;5028629;28;20507;-76
2021/12/08 11:34:25;;;;;;;14.13;2.77;;;8.80;34.60;;;;;;5019244;28;20927;-76
2021/12/08 11:36:55;;;;;;;8.23;2.10;;;8.70;34.50;;;;;;5032181;28;20437;-79
2021/12/08 11:39:40;;;;;;;4.40;1.73;;;8.80;34.20;;;;;;5020295;28;20843;-76
2021/12/08 11:42:13;;;;;;;17.23;2.43;;;8.80;34.10;;;;;;5028556;28;20438;-77
2021/12/08 11:44:52;;;;;;;13.00;3.63;;;8.80;33.70;;;;;;5027584;28;20422;-78
2021/12/08 11:47:23;;;;;;;9.00;1.50;;;8.70;33.40;;;;;;5036102;28;20449;-78
2021/12/08 11:49:56;;;;;;;10.13;2.83;;;8.70;32.90;;;;;;5030371;28;20437;-78
2021/12/08 11:52:29;;;;;;;17.97;1.87;;;8.70;32.90;;;;;;5037070;28;20510;-78
2021/12/08 11:55:00;;;;;;;6.97;1.73;;;8.60;33.70;;;;;;5041044;28;20519;-78
2021/12/08 11:57:33;;;;;;;5.90;1.97;;;8.30;34.20;;;;;;5029113;28;20519;-79
2021/12/08 12:00:11;;;;;;;6.57;1.70;;;8.10;35.20;;;;;;5030520;28;21028;-78
2021/12/08 12:02:46;;;;;;;5.57;2.00;;;8.30;35.20;;;;;;5042146;28;20210;-78
2021/12/08 12:05:19;;;;;;;5.07;1.57;;;8.30;34.80;;;;;;5044707;28;20429;-79
2021/12/08 12:07:46;;;;;;;6.45;1.92;;;8.30;34.70;;;;;;5040848;28;20933;-77
2021/12/08 12:10:14;;;;;;;6.40;2.15;;;8.50;34.10;;;;;;5033023;28;20200;-77
2021/12/08 12:12:41;;;;;;;9.98;2.20;;;8.20;34.70;;;;;;5036708;28;20171;-78
2021/12/08 12:15:09;;;;;;;5.32;1.77;;;8.30;34.60;;;;;;5035045;28;20178;-77
2021/12/08 12:17:35;;;;;;;16.33;2.63;;;8.40;33.70;;;;;;5029271;28;20185;-78
2021/12/08 12:20:12;;;;;;;3.83;1.60;;;8.20;33.50;;;;;;5022819;28;20455;-77
2021/12/08 12:23:15;;;;;;;4.35;1.65;;;8.20;33.60;;;;;;5016750;28;20434;-76
2021/12/08 12:26:14;;;;;;;5.83;1.40;;;8.30;33.10;;;;;;5030557;28;20187;-74
2021/12/08 12:29:02;;;;;;;3.43;1.90;;;8.20;33.50;;;;;;5022372;28;20438;-76
2021/12/08 12:31:46;;;;;;;5.95;2.92;;;8.30;33.30;;;;;;5031125;28;20422;-76
2021/12/08 12:34:32;;;;;;;11.90;1.92;;;8.30;33.20;;;;;;5030606;28;20192;-75
2021/12/08 12:36:59;;;;;;;5.93;1.30;;;8.50;33.00;;;;;;5025484;28;20195;-76
2021/12/08 12:39:28;;;;;;;4.27;1.80;;;8.60;31.90;;;;;;5029765;28;20279;-75
2021/12/08 12:42:12;;;;;;;10.23;2.13;;;8.50;31.80;;;;;;5031559;28;20509;-76
2021/12/08 12:45:02;;;;;;;7.80;1.93;;;8.40;32.10;;;;;;5030679;28;20915;-76
2021/12/08 12:47:30;;;;;;;5.63;1.50;;;8.20;32.60;;;;;;5019182;28;20525;-75
2021/12/08 12:50:14;;;;;;;3.53;1.60;;;8.30;32.70;;;;;;5023930;28;20481;-79
2021/12/08 12:52:55;;;;;;;11.90;1.43;;;8.30;32.60;;;;;;5020077;28;20403;-76
2021/12/08 12:55:21;;;;;;;9.43;2.00;;;8.30;32.80;;;;;;5023245;28;20429;-75
2021/12/08 12:58:04;;;;;;;7.33;1.70;;;8.30;32.30;;;;;;5019076;28;20180;-76
2021/12/08 13:00:34;;;;;;;3.93;1.73;;;8.30;32.30;;;;;;5027431;28;20188;-76
2021/12/08 13:03:01;;;;;;;6.88;1.83;;;8.20;32.40;;;;;;5027785;28;20540;-76
2021/12/08 13:05:52;;;;;;;7.67;1.30;;;8.10;33.00;;;;;;5019517;28;20191;-76
2021/12/08 13:08:35;;;;;;;6.38;1.70;;;8.20;32.60;;;;;;5021318;28;20490;-76
2021/12/08 13:11:30;;;;;;;15.00;1.90;;;8.20;32.60;;;;;;5027705;28;20168;-75
2021/12/08 13:13:56;;;;;;;7.13;1.90;;;8.10;32.90;;;;;;5024685;28;20828;-75
2021/12/08 13:16:25;;;;;;;7.23;2.30;;;8.20;33.00;;;;;;5021877;28;20207;-75
2021/12/08 13:18:55;;;;;;;8.13;2.03;;;8.20;32.50;;;;;;5015555;28;20439;-75
2021/12/08 13:21:44;;;;;;;4.65;1.52;;;8.30;32.80;;;;;;5019405;28;20536;-75
2021/12/08 13:24:35;;;;;;;9.52;2.13;;;8.30;32.80;;;;;;5027830;28;20645;-76
2021/12/08 13:27:09;;;;;;;3.00;1.75;;;8.30;32.70;;;;;;5027779;28;20222;-76
2021/12/08 13:29:37;;;;;;;10.70;2.13;;;8.10;33.40;;;;;;5029000;28;20191;-77
2021/12/08 13:32:15;;;;;;;2.50;1.37;;;8.20;32.90;;;;;;5031124;28;20183;-76
2021/12/08 13:34:55;;;;;;;5.00;2.30;;;8.20;32.70;;;;;;5041218;28;20414;-75
2021/12/08 13:37:29;;;;;;;9.27;1.83;;;8.10;33.20;;;;;;5049722;28;20192;-75
2021/12/08 13:40:05;;;;;;;12.43;2.17;;;8.30;33.30;;;;;;5036570;28;20437;-76
2021/12/08 13:42:33;;;;;;;2.60;1.37;;;8.40;32.80;;;;;;5046305;28;20453;-76
2021/12/08 13:45:03;;;;;;;4.13;1.20;;;8.30;32.80;;;;;;5039303;28;20442;-76
2021/12/08 13:47:34;;;;;;;11.33;1.50;;;8.50;32.40;;;;;;5031238;28;20469;-75
2021/12/08 13:50:12;;;;;;;6.95;2.13;;;8.60;32.00;;;;;;5033436;28;20435;-78
2021/12/08 13:52:45;;;;;;;9.20;3.07;;;8.60;32.10;;;;;;5049164;28;20255;-77
2021/12/08 13:55:16;;;;;;;17.10;4.57;;;8.70;31.80;;;;;;5038049;28;20521;-77
2021/12/08 13:57:44;;;;;;;7.10;2.07;;;8.60;31.30;;;;;;5030758;28;20434;-77
2021/12/08 14:00:12;;;;;;;10.33;2.10;;;8.50;31.50;;;;;;5031416;28;20469;-78
2021/12/08 14:02:38;;;;;;;11.70;2.03;;;8.50;31.80;;;;;;5030812;28;20450;-78
2021/12/08 14:05:22;;;;;;;7.63;2.13;;;8.40;32.00;;;;;;5038913;28;20915;-77
2021/12/08 14:08:07;;;;;;;7.47;1.37;;;8.50;32.10;;;;;;5028316;28;20200;-76